UHMDUHMA

Guest
Details From UHMD - Provideniya Bay
To UHMA - UGOLNY
Flight Number -
Tags generated
Created
Modified
Stats Distance 234 nm / 433 km
Max Altitude 10,800 ft / 3,292 m
Waypoints 4
Social Downloads 1
Likes 0
Share VATSIM

Download

Looking for another format? Having issues loading an existing format? Contact us
Advertisement - Login to hide

Notes

Basic altitude profile: - Ascent Rate: 2500ft/min - Ascent Speed: 250kts - Cruise Altitude: 15000ft - Cruise Speed: 420kts - Descent Rate: 1500ft/min - Descent Speed: 250kts Options: - Use NATs: yes - Use PACOTS: no - Use low airways: yes - Use high airways: yes

Route

UHMD GIRLO G212 VEDLA UHMA

ID Type Via Altitude Latitude Longitude Leg Dist Tot Dist Heading (true) Name
O UHMD APT - 0 ft / 0 m 64.36548˚ -173.23902˚ - 0 nm - Provideniya Bay
GIRLO FIX - 10,100 ft / 3,078 m 64.37667˚ -174.44000˚ 31 nm 31 nm 272° / 271° -
VEDLA FIX G212 (AWY-LO) 10,800 ft / 3,292 m 64.68167˚ 179.89000˚ 147 nm 178 nm 280° / 275° -
O UHMA APT - 0 ft / 0 m 64.73495˚ 177.74148˚ 55 nm 233 nm 274° / 272° UGOLNY

Altitude Profile

Advertisement - Login to hide

Weather


0- 5 10 15 20 25 30 35+ Temperature / ° C

Clouds and Precipitation
Forecast for 2017-12-12 00:00 UTC. Updated an hour ago

Ground ~20,000 ft ~40,000 ft Winds

UHMD

Details ICAO UHMD (PVS)
Name Provideniya Bay
Region Russia
Timezone Asia/Anadyr (UTC+12.0)
Stats Elevation 71 ft / 22 m (AMSL)
Location 64.365475° -173.239022°
Runways 2
Magnetic Variation 6.144° E

METAR

UHMD 120030Z 34007MPS 9999 FEW023 BKN150 M09/M16 Q1004 RMK QBB700 QFE753/1003

Decode

TAF

Not found

Departure Runways

ID Width Length Bearing (true) Bearing (mag) Surface Threshold Offset Overrun Length
01 299 ft / 91 m 8,140 ft / 2,481 m 21.46° 15.32° Gravel 0 ft / 0 m 0 ft / 0 m
03 213 ft / 65 m 3,998 ft / 1,219 m 32.10° 25.96° Gravel 0 ft / 0 m 0 ft / 0 m
19 299 ft / 91 m 8,140 ft / 2,481 m 201.48° 195.34° Gravel 0 ft / 0 m 0 ft / 0 m
21 213 ft / 65 m 3,998 ft / 1,219 m 212.11° 205.97° Gravel 0 ft / 0 m 0 ft / 0 m

UHMA

Details ICAO UHMA (DYR)
Name UGOLNY
Region Russia
Timezone Asia/Anadyr (UTC+12.0)
Stats Elevation 194 ft / 59 m (AMSL)
Location 64.734950° 177.741483°
Runways 1
Magnetic Variation 1.434° E

METAR

UHMA 120030Z 36007MPS 9999 FEW040 SCT080 M23/M26 Q1022 R88/75//40 NOSIG RMK END R01/36003MPS QFE763/1017

Decode

TAF

TAF UHMA 112257Z 1200/1224 34006MPS 9999 SCT030 TEMPO 1200/1224 30008G13MPS 4000 -SN BCFG SCT007 BKN020

Decode

Destination Runways

ID Width Length Bearing (true) Bearing (mag) Surface Threshold Offset Overrun Length
01 197 ft / 60 m 11,439 ft / 3,487 m 14.65° 13.22° Concrete 0 ft / 0 m 240 ft / 73 m
19 197 ft / 60 m 11,439 ft / 3,487 m 194.66° 193.23° Concrete 0 ft / 0 m 240 ft / 73 m

Popular Alternatives